sensor_id;sensor_type;location;lat;lon;timestamp;temperature;humidity
40287;DHT22;25998;46.604;13.610;2023-12-29T00:00:22;3.70;99.90
40287;DHT22;25998;46.604;13.610;2023-12-29T00:03:35;3.70;99.90
40287;DHT22;25998;46.604;13.610;2023-12-29T00:06:46;3.60;99.90
40287;DHT22;25998;46.604;13.610;2023-12-29T00:09:57;3.50;99.90
40287;DHT22;25998;46.604;13.610;2023-12-29T00:13:07;3.50;99.90
40287;DHT22;25998;46.604;13.610;2023-12-29T00:16:18;3.50;99.90
40287;DHT22;25998;46.604;13.610;2023-12-29T00:19:29;3.50;99.90
40287;DHT22;25998;46.604;13.610;2023-12-29T00:22:40;3.40;99.90
40287;DHT22;25998;46.604;13.610;2023-12-29T00:25:51;3.40;99.90
40287;DHT22;25998;46.604;13.610;2023-12-29T00:29:05;3.40;99.90
40287;DHT22;25998;46.604;13.610;2023-12-29T00:32:17;3.30;99.90
40287;DHT22;25998;46.604;13.610;2023-12-29T00:35:28;3.30;99.90
40287;DHT22;25998;46.604;13.610;2023-12-29T00:38:38;3.30;99.90
40287;DHT22;25998;46.604;13.610;2023-12-29T00:41:49;3.30;99.90
40287;DHT22;25998;46.604;13.610;2023-12-29T00:45:00;3.40;99.90
40287;DHT22;25998;46.604;13.610;2023-12-29T00:48:11;3.40;99.90
40287;DHT22;25998;46.604;13.610;2023-12-29T00:51:22;3.30;99.90
40287;DHT22;25998;46.604;13.610;2023-12-29T00:54:33;3.20;99.90
40287;DHT22;25998;46.604;13.610;2023-12-29T00:57:44;3.20;99.90
40287;DHT22;25998;46.604;13.610;2023-12-29T01:00:55;3.10;99.90
40287;DHT22;25998;46.604;13.610;2023-12-29T01:04:06;3.00;99.90
40287;DHT22;25998;46.604;13.610;2023-12-29T01:07:17;3.00;99.90
40287;DHT22;25998;46.604;13.610;2023-12-29T01:10:28;3.00;99.90
40287;DHT22;25998;46.604;13.610;2023-12-29T01:13:39;3.00;99.90
40287;DHT22;25998;46.604;13.610;2023-12-29T01:16:50;3.00;99.90
40287;DHT22;25998;46.604;13.610;2023-12-29T01:20:00;3.10;99.90
40287;DHT22;25998;46.604;13.610;2023-12-29T01:23:14;3.10;99.90
40287;DHT22;25998;46.604;13.610;2023-12-29T01:26:24;3.00;99.90
40287;DHT22;25998;46.604;13.610;2023-12-29T01:29:35;2.90;99.90
40287;DHT22;25998;46.604;13.610;2023-12-29T01:32:46;2.80;99.90
40287;DHT22;25998;46.604;13.610;2023-12-29T01:35:57;2.80;99.90
40287;DHT22;25998;46.604;13.610;2023-12-29T01:39:08;2.90;99.90
40287;DHT22;25998;46.604;13.610;2023-12-29T01:42:19;2.90;99.90
40287;DHT22;25998;46.604;13.610;2023-12-29T01:45:30;2.90;99.90
40287;DHT22;25998;46.604;13.610;2023-12-29T01:48:41;2.90;99.90
40287;DHT22;25998;46.604;13.610;2023-12-29T01:51:57;2.90;99.90
40287;DHT22;25998;46.604;13.610;2023-12-29T01:55:10;2.90;99.90
40287;DHT22;25998;46.604;13.610;2023-12-29T01:58:23;2.90;99.90
40287;DHT22;25998;46.604;13.610;2023-12-29T02:01:35;2.90;99.90
40287;DHT22;25998;46.604;13.610;2023-12-29T02:04:50;2.90;99.90
40287;DHT22;25998;46.604;13.610;2023-12-29T02:08:01;2.80;99.90
40287;DHT22;25998;46.604;13.610;2023-12-29T02:11:13;2.80;99.90
40287;DHT22;25998;46.604;13.610;2023-12-29T02:14:24;2.90;99.90
40287;DHT22;25998;46.604;13.610;2023-12-29T02:17:45;3.00;99.90
40287;DHT22;25998;46.604;13.610;2023-12-29T02:20:56;2.90;99.90
40287;DHT22;25998;46.604;13.610;2023-12-29T02:24:07;2.80;99.90
40287;DHT22;25998;46.604;13.610;2023-12-29T02:31:00;2.90;99.90
40287;DHT22;25998;46.604;13.610;2023-12-29T02:34:12;3.00;99.90
40287;DHT22;25998;46.604;13.610;2023-12-29T02:37:26;3.10;99.90
40287;DHT22;25998;46.604;13.610;2023-12-29T02:40:37;3.10;99.90
40287;DHT22;25998;46.604;13.610;2023-12-29T02:43:48;3.00;99.90
40287;DHT22;25998;46.604;13.610;2023-12-29T02:46:59;3.00;99.90
40287;DHT22;25998;46.604;13.610;2023-12-29T02:50:11;3.00;99.90
40287;DHT22;25998;46.604;13.610;2023-12-29T02:53:22;3.10;99.90
40287;DHT22;25998;46.604;13.610;2023-12-29T02:56:33;3.00;99.90
40287;DHT22;25998;46.604;13.610;2023-12-29T02:59:44;2.90;99.90
40287;DHT22;25998;46.604;13.610;2023-12-29T03:02:55;2.80;99.90
40287;DHT22;25998;46.604;13.610;2023-12-29T03:06:06;2.70;99.90
40287;DHT22;25998;46.604;13.610;2023-12-29T03:09:17;2.80;99.90
40287;DHT22;25998;46.604;13.610;2023-12-29T03:12:28;2.90;99.90
40287;DHT22;25998;46.604;13.610;2023-12-29T03:15:41;2.80;99.90
40287;DHT22;25998;46.604;13.610;2023-12-29T03:18:51;2.70;99.90
40287;DHT22;25998;46.604;13.610;2023-12-29T03:22:02;2.50;99.90
40287;DHT22;25998;46.604;13.610;2023-12-29T03:25:13;2.50;99.90
40287;DHT22;25998;46.604;13.610;2023-12-29T03:28:24;2.40;99.90
40287;DHT22;25998;46.604;13.610;2023-12-29T03:31:35;2.40;99.90
40287;DHT22;25998;46.604;13.610;2023-12-29T03:34:46;2.40;99.90
40287;DHT22;25998;46.604;13.610;2023-12-29T03:37:57;2.40;99.90
40287;DHT22;25998;46.604;13.610;2023-12-29T03:41:07;2.60;99.90
40287;DHT22;25998;46.604;13.610;2023-12-29T03:44:18;2.60;99.90
40287;DHT22;25998;46.604;13.610;2023-12-29T03:47:29;2.50;99.90
40287;DHT22;25998;46.604;13.610;2023-12-29T03:50:42;2.60;99.90
40287;DHT22;25998;46.604;13.610;2023-12-29T03:53:53;2.50;99.90
40287;DHT22;25998;46.604;13.610;2023-12-29T03:57:04;2.50;99.90
40287;DHT22;25998;46.604;13.610;2023-12-29T04:00:16;2.60;99.90
40287;DHT22;25998;46.604;13.610;2023-12-29T04:03:27;2.70;99.90
40287;DHT22;25998;46.604;13.610;2023-12-29T04:06:38;2.70;99.90
40287;DHT22;25998;46.604;13.610;2023-12-29T04:09:49;2.70;99.90
40287;DHT22;25998;46.604;13.610;2023-12-29T04:13:00;2.70;99.90
40287;DHT22;25998;46.604;13.610;2023-12-29T04:16:11;2.60;99.90
40287;DHT22;25998;46.604;13.610;2023-12-29T04:19:22;2.50;99.90
40287;DHT22;25998;46.604;13.610;2023-12-29T04:22:33;2.60;99.90
40287;DHT22;25998;46.604;13.610;2023-12-29T04:25:44;2.70;99.90
40287;DHT22;25998;46.604;13.610;2023-12-29T04:28:55;2.70;99.90
40287;DHT22;25998;46.604;13.610;2023-12-29T04:32:06;2.70;99.90
40287;DHT22;25998;46.604;13.610;2023-12-29T04:35:17;2.70;99.90
40287;DHT22;25998;46.604;13.610;2023-12-29T04:38:28;2.80;99.90
40287;DHT22;25998;46.604;13.610;2023-12-29T04:41:39;2.90;99.90
40287;DHT22;25998;46.604;13.610;2023-12-29T04:44:50;2.90;99.90
40287;DHT22;25998;46.604;13.610;2023-12-29T04:48:01;2.90;99.90
40287;DHT22;25998;46.604;13.610;2023-12-29T04:51:12;2.90;99.90
40287;DHT22;25998;46.604;13.610;2023-12-29T04:54:23;2.90;99.90
40287;DHT22;25998;46.604;13.610;2023-12-29T04:57:35;2.90;99.90
40287;DHT22;25998;46.604;13.610;2023-12-29T05:00:46;2.80;99.90
40287;DHT22;25998;46.604;13.610;2023-12-29T05:03:57;2.80;99.90
40287;DHT22;25998;46.604;13.610;2023-12-29T05:07:08;2.80;99.90
40287;DHT22;25998;46.604;13.610;2023-12-29T05:10:19;2.70;99.90
40287;DHT22;25998;46.604;13.610;2023-12-29T05:13:30;2.60;99.90
40287;DHT22;25998;46.604;13.610;2023-12-29T05:16:42;2.50;99.90
40287;DHT22;25998;46.604;13.610;2023-12-29T05:19:53;2.50;99.90
40287;DHT22;25998;46.604;13.610;2023-12-29T05:23:03;2.60;99.90
40287;DHT22;25998;46.604;13.610;2023-12-29T05:26:15;2.70;99.90
40287;DHT22;25998;46.604;13.610;2023-12-29T05:29:26;2.60;99.90
40287;DHT22;25998;46.604;13.610;2023-12-29T05:32:36;2.60;99.90
40287;DHT22;25998;46.604;13.610;2023-12-29T05:35:47;2.60;99.90
40287;DHT22;25998;46.604;13.610;2023-12-29T05:38:58;2.50;99.90
40287;DHT22;25998;46.604;13.610;2023-12-29T05:42:09;2.30;99.90
40287;DHT22;25998;46.604;13.610;2023-12-29T05:45:20;2.30;99.90
40287;DHT22;25998;46.604;13.610;2023-12-29T05:48:31;2.30;99.90
40287;DHT22;25998;46.604;13.610;2023-12-29T05:51:43;2.30;99.90
40287;DHT22;25998;46.604;13.610;2023-12-29T05:54:54;2.40;99.90
40287;DHT22;25998;46.604;13.610;2023-12-29T05:58:05;2.50;99.90
40287;DHT22;25998;46.604;13.610;2023-12-29T06:01:16;2.50;99.90
40287;DHT22;25998;46.604;13.610;2023-12-29T06:04:27;2.60;99.90
40287;DHT22;25998;46.604;13.610;2023-12-29T06:07:38;2.60;99.90
40287;DHT22;25998;46.604;13.610;2023-12-29T06:10:49;2.70;99.90
40287;DHT22;25998;46.604;13.610;2023-12-29T06:14:00;2.60;99.90
40287;DHT22;25998;46.604;13.610;2023-12-29T06:17:11;2.50;99.90
40287;DHT22;25998;46.604;13.610;2023-12-29T06:20:22;2.40;99.90
40287;DHT22;25998;46.604;13.610;2023-12-29T06:23:33;2.40;99.90
40287;DHT22;25998;46.604;13.610;2023-12-29T06:26:44;2.40;99.90
40287;DHT22;25998;46.604;13.610;2023-12-29T06:29:55;2.40;99.90
40287;DHT22;25998;46.604;13.610;2023-12-29T06:33:05;2.30;99.90
40287;DHT22;25998;46.604;13.610;2023-12-29T06:36:17;2.20;99.90
40287;DHT22;25998;46.604;13.610;2023-12-29T06:39:27;2.10;99.90
40287;DHT22;25998;46.604;13.610;2023-12-29T06:42:38;2.00;99.90
40287;DHT22;25998;46.604;13.610;2023-12-29T06:45:49;2.00;99.90
40287;DHT22;25998;46.604;13.610;2023-12-29T06:49:00;2.00;99.90
40287;DHT22;25998;46.604;13.610;2023-12-29T06:52:11;2.00;99.90
40287;DHT22;25998;46.604;13.610;2023-12-29T06:55:22;2.10;99.90
40287;DHT22;25998;46.604;13.610;2023-12-29T06:58:34;2.20;99.90
40287;DHT22;25998;46.604;13.610;2023-12-29T07:01:46;2.30;99.90
40287;DHT22;25998;46.604;13.610;2023-12-29T07:04:57;2.40;99.90
40287;DHT22;25998;46.604;13.610;2023-12-29T07:08:08;2.50;99.90
40287;DHT22;25998;46.604;13.610;2023-12-29T07:11:19;2.50;99.90
40287;DHT22;25998;46.604;13.610;2023-12-29T07:14:30;2.60;99.90
40287;DHT22;25998;46.604;13.610;2023-12-29T07:17:41;2.50;99.90
40287;DHT22;25998;46.604;13.610;2023-12-29T07:20:52;2.30;99.90
40287;DHT22;25998;46.604;13.610;2023-12-29T07:24:03;2.10;99.90
40287;DHT22;25998;46.604;13.610;2023-12-29T07:27:13;2.00;99.90
40287;DHT22;25998;46.604;13.610;2023-12-29T07:30:24;2.00;99.90
40287;DHT22;25998;46.604;13.610;2023-12-29T07:33:36;2.00;99.90
40287;DHT22;25998;46.604;13.610;2023-12-29T07:36:47;1.90;99.90
40287;DHT22;25998;46.604;13.610;2023-12-29T07:39:58;1.90;99.90
40287;DHT22;25998;46.604;13.610;2023-12-29T07:43:09;2.00;99.90
40287;DHT22;25998;46.604;13.610;2023-12-29T07:46:24;2.10;99.90
40287;DHT22;25998;46.604;13.610;2023-12-29T07:49:36;2.20;99.90
40287;DHT22;25998;46.604;13.610;2023-12-29T07:52:47;2.30;99.90
40287;DHT22;25998;46.604;13.610;2023-12-29T07:55:57;2.30;99.90
40287;DHT22;25998;46.604;13.610;2023-12-29T07:59:08;2.30;99.90
40287;DHT22;25998;46.604;13.610;2023-12-29T08:02:19;2.30;99.90
40287;DHT22;25998;46.604;13.610;2023-12-29T08:05:30;2.30;99.90
40287;DHT22;25998;46.604;13.610;2023-12-29T08:08:41;2.40;99.90
40287;DHT22;25998;46.604;13.610;2023-12-29T08:11:52;2.50;99.90
40287;DHT22;25998;46.604;13.610;2023-12-29T08:15:03;2.50;99.90
40287;DHT22;25998;46.604;13.610;2023-12-29T08:18:14;2.50;99.90
40287;DHT22;25998;46.604;13.610;2023-12-29T08:21:25;2.50;99.90
40287;DHT22;25998;46.604;13.610;2023-12-29T08:24:40;2.50;99.90
40287;DHT22;25998;46.604;13.610;2023-12-29T08:27:54;2.50;99.90
40287;DHT22;25998;46.604;13.610;2023-12-29T08:31:06;2.60;99.90
40287;DHT22;25998;46.604;13.610;2023-12-29T08:34:17;2.60;99.90
40287;DHT22;25998;46.604;13.610;2023-12-29T08:37:28;2.70;99.90
40287;DHT22;25998;46.604;13.610;2023-12-29T08:40:39;2.80;99.90
40287;DHT22;25998;46.604;13.610;2023-12-29T08:43:50;2.80;99.90
40287;DHT22;25998;46.604;13.610;2023-12-29T08:47:01;2.90;99.90
40287;DHT22;25998;46.604;13.610;2023-12-29T08:50:13;3.00;99.90
40287;DHT22;25998;46.604;13.610;2023-12-29T08:53:25;3.10;99.90
40287;DHT22;25998;46.604;13.610;2023-12-29T08:56:36;3.20;99.90
40287;DHT22;25998;46.604;13.610;2023-12-29T08:59:47;3.30;99.90
40287;DHT22;25998;46.604;13.610;2023-12-29T09:02:59;3.60;99.90
40287;DHT22;25998;46.604;13.610;2023-12-29T09:06:10;3.80;99.90
40287;DHT22;25998;46.604;13.610;2023-12-29T09:09:21;4.20;99.90
40287;DHT22;25998;46.604;13.610;2023-12-29T09:12:32;4.50;99.90
40287;DHT22;25998;46.604;13.610;2023-12-29T09:15:43;4.90;99.90
40287;DHT22;25998;46.604;13.610;2023-12-29T09:18:54;5.40;99.90
40287;DHT22;25998;46.604;13.610;2023-12-29T09:22:05;5.80;99.90
40287;DHT22;25998;46.604;13.610;2023-12-29T09:25:16;6.30;99.90
40287;DHT22;25998;46.604;13.610;2023-12-29T09:28:26;6.80;99.90
40287;DHT22;25998;46.604;13.610;2023-12-29T09:31:37;7.30;99.90
40287;DHT22;25998;46.604;13.610;2023-12-29T09:34:48;7.70;99.90
40287;DHT22;25998;46.604;13.610;2023-12-29T09:37:59;8.00;99.90
40287;DHT22;25998;46.604;13.610;2023-12-29T09:41:13;8.40;99.90
40287;DHT22;25998;46.604;13.610;2023-12-29T09:44:25;8.60;99.90
40287;DHT22;25998;46.604;13.610;2023-12-29T09:47:40;8.70;99.90
40287;DHT22;25998;46.604;13.610;2023-12-29T09:50:51;8.50;99.90
40287;DHT22;25998;46.604;13.610;2023-12-29T09:54:03;8.40;99.90
40287;DHT22;25998;46.604;13.610;2023-12-29T09:57:16;8.50;99.90
40287;DHT22;25998;46.604;13.610;2023-12-29T10:00:27;8.60;99.90
40287;DHT22;25998;46.604;13.610;2023-12-29T10:03:38;8.90;99.90
40287;DHT22;25998;46.604;13.610;2023-12-29T10:06:50;9.10;99.90
40287;DHT22;25998;46.604;13.610;2023-12-29T10:10:02;9.30;99.90
40287;DHT22;25998;46.604;13.610;2023-12-29T10:13:15;9.40;99.00
40287;DHT22;25998;46.604;13.610;2023-12-29T10:16:37;9.60;99.70
40287;DHT22;25998;46.604;13.610;2023-12-29T10:19:58;9.50;99.00
40287;DHT22;25998;46.604;13.610;2023-12-29T10:23:13;9.30;99.80
40287;DHT22;25998;46.604;13.610;2023-12-29T10:26:27;8.70;99.90
40287;DHT22;25998;46.604;13.610;2023-12-29T10:29:38;8.40;99.90
40287;DHT22;25998;46.604;13.610;2023-12-29T10:32:52;8.50;99.90
40287;DHT22;25998;46.604;13.610;2023-12-29T10:36:03;8.60;99.90
40287;DHT22;25998;46.604;13.610;2023-12-29T10:39:17;8.90;99.90
40287;DHT22;25998;46.604;13.610;2023-12-29T10:42:28;9.10;98.90
40287;DHT22;25998;46.604;13.610;2023-12-29T10:45:39;9.00;99.20
40287;DHT22;25998;46.604;13.610;2023-12-29T10:48:50;9.00;98.90
40287;DHT22;25998;46.604;13.610;2023-12-29T10:52:11;9.10;98.60
40287;DHT22;25998;46.604;13.610;2023-12-29T10:55:23;9.10;98.90
40287;DHT22;25998;46.604;13.610;2023-12-29T10:58:34;9.20;98.90
40287;DHT22;25998;46.604;13.610;2023-12-29T11:01:47;9.30;99.40
40287;DHT22;25998;46.604;13.610;2023-12-29T11:05:06;9.30;99.10
40287;DHT22;25998;46.604;13.610;2023-12-29T11:08:20;9.30;98.70
40287;DHT22;25998;46.604;13.610;2023-12-29T11:11:31;9.40;99.20
40287;DHT22;25998;46.604;13.610;2023-12-29T11:14:42;9.20;99.10
40287;DHT22;25998;46.604;13.610;2023-12-29T11:17:57;9.10;99.20
40287;DHT22;25998;46.604;13.610;2023-12-29T11:21:08;9.30;99.20
40287;DHT22;25998;46.604;13.610;2023-12-29T11:24:21;9.30;98.90
40287;DHT22;25998;46.604;13.610;2023-12-29T11:27:32;9.30;98.40
40287;DHT22;25998;46.604;13.610;2023-12-29T11:30:43;9.30;98.20
40287;DHT22;25998;46.604;13.610;2023-12-29T11:34:00;9.30;99.40
40287;DHT22;25998;46.604;13.610;2023-12-29T11:40:41;9.30;98.50
40287;DHT22;25998;46.604;13.610;2023-12-29T11:43:59;9.60;98.40
40287;DHT22;25998;46.604;13.610;2023-12-29T11:47:36;9.80;98.20
40287;DHT22;25998;46.604;13.610;2023-12-29T11:50:47;9.70;97.70
40287;DHT22;25998;46.604;13.610;2023-12-29T11:54:03;9.80;97.60
40287;DHT22;25998;46.604;13.610;2023-12-29T11:57:31;9.60;97.50
40287;DHT22;25998;46.604;13.610;2023-12-29T12:00:44;9.70;97.70
40287;DHT22;25998;46.604;13.610;2023-12-29T12:03:55;9.80;97.20
40287;DHT22;25998;46.604;13.610;2023-12-29T12:10:36;9.90;97.50
40287;DHT22;25998;46.604;13.610;2023-12-29T12:13:49;9.90;97.80
40287;DHT22;25998;46.604;13.610;2023-12-29T12:17:00;9.70;97.40
40287;DHT22;25998;46.604;13.610;2023-12-29T12:20:11;9.60;97.70
40287;DHT22;25998;46.604;13.610;2023-12-29T12:23:25;9.50;97.80
40287;DHT22;25998;46.604;13.610;2023-12-29T12:26:36;9.60;98.10
40287;DHT22;25998;46.604;13.610;2023-12-29T12:29:49;9.60;97.80
40287;DHT22;25998;46.604;13.610;2023-12-29T12:33:04;9.60;97.40
40287;DHT22;25998;46.604;13.610;2023-12-29T12:36:15;9.60;97.50
40287;DHT22;25998;46.604;13.610;2023-12-29T12:39:38;9.70;97.40
40287;DHT22;25998;46.604;13.610;2023-12-29T12:42:49;9.80;97.40
40287;DHT22;25998;46.604;13.610;2023-12-29T12:46:00;9.80;97.30
40287;DHT22;25998;46.604;13.610;2023-12-29T12:49:13;9.70;96.70
40287;DHT22;25998;46.604;13.610;2023-12-29T12:52:26;9.70;96.80
40287;DHT22;25998;46.604;13.610;2023-12-29T12:55:38;9.70;97.10
40287;DHT22;25998;46.604;13.610;2023-12-29T12:58:49;9.80;97.00
40287;DHT22;25998;46.604;13.610;2023-12-29T13:02:00;9.80;97.10
40287;DHT22;25998;46.604;13.610;2023-12-29T13:05:10;9.90;97.30
40287;DHT22;25998;46.604;13.610;2023-12-29T13:08:21;9.70;97.70
40287;DHT22;25998;46.604;13.610;2023-12-29T13:11:32;9.70;98.20
40287;DHT22;25998;46.604;13.610;2023-12-29T13:14:44;9.70;97.70
40287;DHT22;25998;46.604;13.610;2023-12-29T13:17:56;9.70;97.60
40287;DHT22;25998;46.604;13.610;2023-12-29T13:21:08;9.80;97.70
40287;DHT22;25998;46.604;13.610;2023-12-29T13:24:21;9.80;97.40
40287;DHT22;25998;46.604;13.610;2023-12-29T13:27:32;9.90;97.70
40287;DHT22;25998;46.604;13.610;2023-12-29T13:30:43;9.80;97.30
40287;DHT22;25998;46.604;13.610;2023-12-29T13:34:01;9.70;97.60
40287;DHT22;25998;46.604;13.610;2023-12-29T13:37:21;9.70;97.20
40287;DHT22;25998;46.604;13.610;2023-12-29T13:43:48;9.80;98.50
40287;DHT22;25998;46.604;13.610;2023-12-29T13:46:59;9.60;99.00
40287;DHT22;25998;46.604;13.610;2023-12-29T13:50:11;9.70;98.80
40287;DHT22;25998;46.604;13.610;2023-12-29T13:53:22;9.60;99.40
40287;DHT22;25998;46.604;13.610;2023-12-29T13:56:33;9.70;99.40
40287;DHT22;25998;46.604;13.610;2023-12-29T13:59:44;9.90;98.80
40287;DHT22;25998;46.604;13.610;2023-12-29T14:06:12;9.50;99.50
40287;DHT22;25998;46.604;13.610;2023-12-29T14:09:24;9.40;99.80
40287;DHT22;25998;46.604;13.610;2023-12-29T14:12:35;9.30;99.90
40287;DHT22;25998;46.604;13.610;2023-12-29T14:15:46;9.60;99.90
40287;DHT22;25998;46.604;13.610;2023-12-29T14:19:01;9.50;99.60
40287;DHT22;25998;46.604;13.610;2023-12-29T14:22:21;9.70;98.80
40287;DHT22;25998;46.604;13.610;2023-12-29T14:25:36;9.80;98.80
40287;DHT22;25998;46.604;13.610;2023-12-29T14:29:06;9.40;99.00
40287;DHT22;25998;46.604;13.610;2023-12-29T14:32:17;9.50;99.90
40287;DHT22;25998;46.604;13.610;2023-12-29T14:35:28;9.20;99.80
40287;DHT22;25998;46.604;13.610;2023-12-29T14:38:39;9.00;99.90
40287;DHT22;25998;46.604;13.610;2023-12-29T14:41:50;8.80;99.90
40287;DHT22;25998;46.604;13.610;2023-12-29T14:45:04;8.60;99.90
40287;DHT22;25998;46.604;13.610;2023-12-29T14:48:15;8.40;99.90
40287;DHT22;25998;46.604;13.610;2023-12-29T14:51:26;8.30;99.90
40287;DHT22;25998;46.604;13.610;2023-12-29T14:54:38;8.50;99.90
40287;DHT22;25998;46.604;13.610;2023-12-29T14:57:50;8.30;99.90
40287;DHT22;25998;46.604;13.610;2023-12-29T15:01:01;8.10;99.90
40287;DHT22;25998;46.604;13.610;2023-12-29T15:04:13;8.10;99.90
40287;DHT22;25998;46.604;13.610;2023-12-29T15:07:25;8.00;99.90
40287;DHT22;25998;46.604;13.610;2023-12-29T15:10:41;7.80;99.90
40287;DHT22;25998;46.604;13.610;2023-12-29T15:13:52;7.50;99.90
40287;DHT22;25998;46.604;13.610;2023-12-29T15:17:03;7.20;99.90
40287;DHT22;25998;46.604;13.610;2023-12-29T15:20:13;7.00;99.90
40287;DHT22;25998;46.604;13.610;2023-12-29T15:23:24;7.00;99.90
40287;DHT22;25998;46.604;13.610;2023-12-29T15:26:35;7.00;99.90
40287;DHT22;25998;46.604;13.610;2023-12-29T15:29:46;7.00;99.90
40287;DHT22;25998;46.604;13.610;2023-12-29T15:32:57;7.00;99.90
40287;DHT22;25998;46.604;13.610;2023-12-29T15:36:12;7.10;99.90
40287;DHT22;25998;46.604;13.610;2023-12-29T15:39:24;7.10;99.90
40287;DHT22;25998;46.604;13.610;2023-12-29T15:42:36;6.80;99.90
40287;DHT22;25998;46.604;13.610;2023-12-29T15:45:47;6.60;99.90
40287;DHT22;25998;46.604;13.610;2023-12-29T15:48:58;6.40;99.90
40287;DHT22;25998;46.604;13.610;2023-12-29T15:52:11;6.20;99.90
40287;DHT22;25998;46.604;13.610;2023-12-29T15:55:22;6.10;99.90
40287;DHT22;25998;46.604;13.610;2023-12-29T15:58:33;6.10;99.90
40287;DHT22;25998;46.604;13.610;2023-12-29T16:01:44;6.10;99.90
40287;DHT22;25998;46.604;13.610;2023-12-29T16:04:55;6.10;99.90
40287;DHT22;25998;46.604;13.610;2023-12-29T16:08:06;6.10;99.90
40287;DHT22;25998;46.604;13.610;2023-12-29T16:11:25;6.10;99.90
40287;DHT22;25998;46.604;13.610;2023-12-29T16:14:37;6.20;99.90
40287;DHT22;25998;46.604;13.610;2023-12-29T16:17:48;6.30;99.90
40287;DHT22;25998;46.604;13.610;2023-12-29T16:20:59;6.30;99.90
40287;DHT22;25998;46.604;13.610;2023-12-29T16:24:10;6.00;99.90
40287;DHT22;25998;46.604;13.610;2023-12-29T16:27:23;5.80;99.90
40287;DHT22;25998;46.604;13.610;2023-12-29T16:30:35;5.80;99.90
40287;DHT22;25998;46.604;13.610;2023-12-29T16:33:46;5.70;99.90
40287;DHT22;25998;46.604;13.610;2023-12-29T16:36:58;5.50;99.90
40287;DHT22;25998;46.604;13.610;2023-12-29T16:40:09;5.50;99.90
40287;DHT22;25998;46.604;13.610;2023-12-29T16:43:22;5.60;99.90
40287;DHT22;25998;46.604;13.610;2023-12-29T16:46:33;5.70;99.90
40287;DHT22;25998;46.604;13.610;2023-12-29T16:49:45;5.60;99.90
40287;DHT22;25998;46.604;13.610;2023-12-29T16:52:56;5.40;99.90
40287;DHT22;25998;46.604;13.610;2023-12-29T16:56:07;5.30;99.90
40287;DHT22;25998;46.604;13.610;2023-12-29T16:59:19;5.20;99.90
40287;DHT22;25998;46.604;13.610;2023-12-29T17:02:30;5.20;99.90
40287;DHT22;25998;46.604;13.610;2023-12-29T17:05:42;5.20;99.90
40287;DHT22;25998;46.604;13.610;2023-12-29T17:08:52;5.10;99.90
40287;DHT22;25998;46.604;13.610;2023-12-29T17:12:03;5.10;99.90
40287;DHT22;25998;46.604;13.610;2023-12-29T17:15:14;5.20;99.90
40287;DHT22;25998;46.604;13.610;2023-12-29T17:18:25;5.40;99.90
40287;DHT22;25998;46.604;13.610;2023-12-29T17:21:37;5.50;99.90
40287;DHT22;25998;46.604;13.610;2023-12-29T17:24:48;5.30;99.90
40287;DHT22;25998;46.604;13.610;2023-12-29T17:27:59;5.10;99.90
40287;DHT22;25998;46.604;13.610;2023-12-29T17:31:10;5.00;99.90
40287;DHT22;25998;46.604;13.610;2023-12-29T17:34:21;5.00;99.90
40287;DHT22;25998;46.604;13.610;2023-12-29T17:37:32;4.90;99.90
40287;DHT22;25998;46.604;13.610;2023-12-29T17:40:43;4.90;99.90
40287;DHT22;25998;46.604;13.610;2023-12-29T17:43:55;4.90;99.90
40287;DHT22;25998;46.604;13.610;2023-12-29T17:47:07;4.90;99.90
40287;DHT22;25998;46.604;13.610;2023-12-29T17:50:19;4.90;99.90
40287;DHT22;25998;46.604;13.610;2023-12-29T17:53:30;4.90;99.90
40287;DHT22;25998;46.604;13.610;2023-12-29T17:56:41;4.80;99.90
40287;DHT22;25998;46.604;13.610;2023-12-29T17:59:51;4.80;99.90
40287;DHT22;25998;46.604;13.610;2023-12-29T18:03:03;4.70;99.90
40287;DHT22;25998;46.604;13.610;2023-12-29T18:06:15;4.70;99.90
40287;DHT22;25998;46.604;13.610;2023-12-29T18:09:27;4.70;99.90
40287;DHT22;25998;46.604;13.610;2023-12-29T18:12:38;4.70;99.90
40287;DHT22;25998;46.604;13.610;2023-12-29T18:15:49;4.60;99.90
40287;DHT22;25998;46.604;13.610;2023-12-29T18:19:01;4.60;99.90
40287;DHT22;25998;46.604;13.610;2023-12-29T18:22:12;4.60;99.90
40287;DHT22;25998;46.604;13.610;2023-12-29T18:25:27;4.60;99.90
40287;DHT22;25998;46.604;13.610;2023-12-29T18:28:39;4.60;99.90
40287;DHT22;25998;46.604;13.610;2023-12-29T18:31:53;4.70;99.90
40287;DHT22;25998;46.604;13.610;2023-12-29T18:35:04;4.70;99.90
40287;DHT22;25998;46.604;13.610;2023-12-29T18:38:15;4.60;99.90
40287;DHT22;25998;46.604;13.610;2023-12-29T18:41:26;4.60;99.90
40287;DHT22;25998;46.604;13.610;2023-12-29T18:44:38;4.50;99.90
40287;DHT22;25998;46.604;13.610;2023-12-29T18:47:49;4.50;99.90
40287;DHT22;25998;46.604;13.610;2023-12-29T18:51:01;4.50;99.90
40287;DHT22;25998;46.604;13.610;2023-12-29T18:54:12;4.60;99.90
40287;DHT22;25998;46.604;13.610;2023-12-29T18:57:23;4.60;99.90
40287;DHT22;25998;46.604;13.610;2023-12-29T19:00:34;4.70;99.90
40287;DHT22;25998;46.604;13.610;2023-12-29T19:03:45;4.60;99.90
40287;DHT22;25998;46.604;13.610;2023-12-29T19:06:56;4.40;99.90
40287;DHT22;25998;46.604;13.610;2023-12-29T19:10:07;4.30;99.90
40287;DHT22;25998;46.604;13.610;2023-12-29T19:13:19;4.20;99.90
40287;DHT22;25998;46.604;13.610;2023-12-29T19:16:30;4.10;99.90
40287;DHT22;25998;46.604;13.610;2023-12-29T19:19:41;4.10;99.90
40287;DHT22;25998;46.604;13.610;2023-12-29T19:22:52;4.20;99.90
40287;DHT22;25998;46.604;13.610;2023-12-29T19:26:03;4.20;99.90
40287;DHT22;25998;46.604;13.610;2023-12-29T19:29:14;4.20;99.90
40287;DHT22;25998;46.604;13.610;2023-12-29T19:32:25;4.20;99.90
40287;DHT22;25998;46.604;13.610;2023-12-29T19:35:35;4.10;99.90
40287;DHT22;25998;46.604;13.610;2023-12-29T19:38:47;4.10;99.90
40287;DHT22;25998;46.604;13.610;2023-12-29T19:42:01;4.10;99.90
40287;DHT22;25998;46.604;13.610;2023-12-29T19:45:13;4.10;99.90
40287;DHT22;25998;46.604;13.610;2023-12-29T19:48:26;4.10;99.90
40287;DHT22;25998;46.604;13.610;2023-12-29T19:51:37;4.10;99.90
40287;DHT22;25998;46.604;13.610;2023-12-29T19:54:48;4.10;99.90
40287;DHT22;25998;46.604;13.610;2023-12-29T19:57:59;4.00;99.90
40287;DHT22;25998;46.604;13.610;2023-12-29T20:01:10;4.00;99.90
40287;DHT22;25998;46.604;13.610;2023-12-29T20:04:21;4.00;99.90
40287;DHT22;25998;46.604;13.610;2023-12-29T20:07:32;4.00;99.90
40287;DHT22;25998;46.604;13.610;2023-12-29T20:10:43;3.90;99.90
40287;DHT22;25998;46.604;13.610;2023-12-29T20:13:54;3.90;99.90
40287;DHT22;25998;46.604;13.610;2023-12-29T20:17:05;4.00;99.90
40287;DHT22;25998;46.604;13.610;2023-12-29T20:20:16;4.00;99.90
40287;DHT22;25998;46.604;13.610;2023-12-29T20:23:28;4.20;99.90
40287;DHT22;25998;46.604;13.610;2023-12-29T20:26:39;4.20;99.90